createdAt,value
2022-12-11T00:00:59.675Z,85.08
2022-12-11T00:03:01.080Z,84.87
2022-12-11T00:05:02.584Z,85.48
2022-12-11T00:07:03.963Z,84.96
2022-12-11T00:09:05.433Z,85.40
2022-12-11T00:11:12.582Z,85.74
2022-12-11T00:13:13.976Z,85.98
2022-12-11T00:15:15.572Z,86.05
2022-12-11T00:17:16.911Z,86.09
2022-12-11T00:19:18.316Z,85.92
2022-12-11T00:21:19.705Z,85.89
2022-12-11T00:23:21.164Z,85.54
2022-12-11T00:25:22.512Z,85.99
2022-12-11T00:27:24.221Z,85.58
2022-12-11T00:29:27.475Z,86.25
2022-12-11T00:31:29.835Z,86.17
2022-12-11T00:33:31.590Z,86.16
2022-12-11T00:35:32.968Z,86.58
2022-12-11T00:37:34.448Z,86.41
2022-12-11T00:39:37.447Z,86.87
2022-12-11T00:41:38.803Z,86.16
2022-12-11T00:43:40.523Z,86.64
2022-12-11T00:45:44.696Z,86.56
2022-12-11T00:47:46.209Z,86.69
2022-12-11T00:49:49.967Z,86.79
2022-12-11T00:51:51.799Z,87.03
2022-12-11T00:53:53.482Z,86.71
2022-12-11T00:55:54.916Z,87.10
2022-12-11T00:57:58.261Z,86.71
2022-12-11T00:59:59.661Z,87.00
2022-12-11T01:02:00.996Z,87.15
2022-12-11T01:04:02.510Z,87.50
2022-12-11T01:06:04.938Z,87.44
2022-12-11T01:08:06.602Z,87.54
2022-12-11T01:10:27.596Z,87.32
2022-12-11T01:12:29.133Z,87.05
2022-12-11T01:14:30.502Z,87.20
2022-12-11T01:16:32.532Z,87.58
2022-12-11T01:18:33.944Z,87.37
2022-12-11T01:20:37.187Z,87.34
2022-12-11T01:22:39.412Z,87.45
2022-12-11T01:24:40.816Z,86.83
2022-12-11T01:26:42.185Z,87.27
2022-12-11T01:28:44.354Z,87.37
2022-12-11T01:30:45.985Z,87.17
2022-12-11T01:32:47.482Z,87.04
2022-12-11T01:34:48.998Z,87.69
2022-12-11T01:36:52.329Z,87.37
2022-12-11T01:38:54.364Z,87.96
2022-12-11T01:40:55.735Z,87.56
2022-12-11T01:42:57.146Z,88.06
2022-12-11T01:45:27.291Z,87.64
2022-12-11T01:47:28.838Z,87.72
2022-12-11T01:49:30.272Z,87.36
2022-12-11T01:51:35.768Z,88.52
2022-12-11T01:53:42.449Z,87.21
2022-12-11T01:55:45.000Z,87.99
2022-12-11T01:57:50.443Z,87.69
2022-12-11T01:59:51.885Z,88.40
2022-12-11T02:02:30.020Z,87.60
2022-12-11T02:04:34.767Z,86.91
2022-12-11T02:06:46.862Z,87.12
2022-12-11T02:08:48.304Z,87.36
2022-12-11T02:11:17.644Z,87.02
2022-12-11T02:13:38.306Z,87.57
2022-12-11T02:15:51.427Z,87.64
2022-12-11T02:17:55.791Z,87.83
2022-12-11T02:19:57.088Z,87.19
2022-12-11T02:22:02.732Z,87.63
2022-12-11T02:24:26.495Z,87.32
2022-12-11T02:26:51.420Z,87.59
2022-12-11T02:28:58.003Z,86.89
2022-12-11T02:31:05.422Z,87.72
2022-12-11T02:33:09.582Z,87.28
2022-12-11T02:35:23.671Z,87.11
2022-12-11T02:37:29.604Z,88.06
2022-12-11T02:39:33.519Z,87.96
2022-12-11T02:41:35.251Z,87.48
2022-12-11T02:43:37.828Z,87.65
2022-12-11T02:45:41.632Z,87.55
2022-12-11T02:47:47.858Z,87.81
2022-12-11T02:49:50.771Z,87.90
2022-12-11T02:51:54.552Z,87.51
2022-12-11T02:53:58.927Z,87.34
2022-12-11T02:56:12.988Z,87.59
2022-12-11T02:58:19.553Z,87.67
2022-12-11T03:00:21.844Z,87.91
2022-12-11T03:02:23.388Z,87.30
2022-12-11T03:04:24.902Z,87.16
2022-12-11T03:06:32.870Z,87.39
2022-12-11T03:08:34.263Z,87.29
2022-12-11T03:10:41.839Z,87.20
2022-12-11T03:12:53.042Z,87.68
2022-12-11T03:26:43.883Z,87.61
2022-12-11T03:28:56.538Z,87.75
2022-12-11T03:31:02.958Z,87.34
2022-12-11T03:33:13.596Z,87.88
2022-12-11T03:35:25.053Z,87.71
2022-12-11T03:37:31.298Z,87.69
2022-12-11T03:39:37.723Z,87.77
2022-12-11T03:41:41.026Z,87.73
2022-12-11T03:43:42.805Z,87.69
2022-12-11T03:45:46.915Z,87.44
2022-12-11T03:47:50.439Z,87.55
2022-12-11T03:49:53.719Z,87.39
2022-12-11T03:51:57.966Z,87.01
2022-12-11T03:54:00.068Z,87.41
2022-12-11T03:56:04.264Z,87.15
2022-12-11T03:58:05.685Z,87.52
2022-12-11T04:00:10.618Z,87.74
2022-12-11T04:02:12.152Z,87.50
2022-12-11T04:04:13.892Z,87.86
2022-12-11T04:06:15.302Z,87.48
2022-12-11T04:08:20.681Z,87.27
2022-12-11T04:10:22.124Z,87.95
2022-12-11T04:12:23.671Z,87.76
2022-12-11T04:14:43.984Z,87.70
2022-12-11T04:16:45.329Z,87.89
2022-12-11T04:19:05.052Z,87.73
2022-12-11T04:21:24.818Z,87.26
2022-12-11T04:23:44.534Z,87.98
2022-12-11T04:25:50.922Z,88.23
2022-12-11T04:27:52.951Z,87.95
2022-12-11T04:29:54.318Z,88.32
2022-12-11T04:31:55.853Z,88.29
2022-12-11T04:33:57.253Z,88.77
2022-12-11T04:35:59.707Z,88.65
2022-12-11T04:38:09.036Z,88.58
2022-12-11T04:40:13.213Z,88.56
2022-12-11T04:42:14.673Z,88.61
2022-12-11T04:44:16.051Z,88.85
2022-12-11T04:46:20.674Z,88.29
2022-12-11T04:48:22.031Z,88.42
2022-12-11T04:50:23.396Z,88.13
2022-12-11T04:52:24.808Z,88.21
2022-12-11T04:54:26.269Z,88.17
2022-12-11T04:56:27.697Z,88.26
2022-12-11T04:58:29.103Z,88.07
2022-12-11T05:00:30.460Z,88.25
2022-12-11T05:02:35.115Z,88.19
2022-12-11T05:04:36.570Z,88.32
2022-12-11T05:06:37.944Z,88.29
2022-12-11T05:08:41.435Z,88.09
2022-12-11T05:10:48.586Z,87.92
2022-12-11T05:12:51.457Z,87.31
2022-12-11T05:14:53.551Z,87.44
2022-12-11T05:16:54.896Z,87.57
2022-12-11T05:18:56.268Z,87.65
2022-12-11T05:21:03.165Z,87.88
2022-12-11T05:23:04.559Z,87.56
2022-12-11T05:25:06.653Z,88.03
2022-12-11T05:27:08.029Z,87.69
2022-12-11T05:29:09.596Z,87.87
2022-12-11T05:31:16.972Z,87.47
2022-12-11T05:33:18.389Z,87.55
2022-12-11T05:35:19.788Z,87.46
2022-12-11T05:37:21.288Z,87.49
2022-12-11T05:39:22.675Z,87.76
2022-12-11T05:41:26.070Z,87.96
2022-12-11T05:43:28.987Z,87.81
2022-12-11T05:45:30.361Z,87.88
2022-12-11T05:47:31.809Z,87.80
2022-12-11T05:49:33.179Z,87.77
2022-12-11T05:51:34.995Z,87.91
2022-12-11T05:53:38.182Z,87.57
2022-12-11T05:55:39.516Z,87.74
2022-12-11T05:57:40.987Z,87.78
2022-12-11T05:59:42.369Z,87.99
2022-12-11T06:01:43.803Z,87.57
2022-12-11T06:03:45.639Z,88.09
2022-12-11T06:05:46.993Z,87.60
2022-12-11T06:07:48.398Z,88.14
2022-12-11T06:09:49.793Z,87.95
2022-12-11T06:11:51.142Z,88.04
2022-12-11T06:13:53.128Z,87.79
2022-12-11T06:15:54.635Z,87.42
2022-12-11T06:17:56.072Z,87.55
2022-12-11T06:19:57.476Z,87.57
2022-12-11T06:21:58.815Z,88.13
2022-12-11T06:24:02.365Z,87.76
2022-12-11T06:26:04.138Z,87.77
2022-12-11T06:28:05.505Z,87.72
2022-12-11T06:30:07.980Z,87.74
2022-12-11T06:32:09.387Z,87.86
2022-12-11T06:34:14.086Z,87.86
2022-12-11T06:36:18.667Z,87.69
2022-12-11T06:38:20.065Z,87.94
2022-12-11T06:40:21.560Z,88.33
2022-12-11T06:42:22.940Z,88.46
2022-12-11T06:44:24.982Z,88.40
2022-12-11T06:46:26.353Z,88.44
2022-12-11T06:48:28.582Z,88.32
2022-12-11T06:50:30.039Z,88.29
2022-12-11T06:52:31.519Z,88.05
2022-12-11T06:54:33.051Z,88.14
2022-12-11T06:56:34.843Z,87.88
2022-12-11T06:58:37.411Z,87.94
2022-12-11T07:00:39.112Z,88.17
2022-12-11T07:02:40.660Z,88.33
2022-12-11T07:04:42.446Z,87.89
2022-12-11T07:06:44.273Z,87.97
2022-12-11T07:08:45.701Z,87.90
2022-12-11T07:10:47.077Z,88.37
2022-12-11T07:12:48.516Z,87.99
2022-12-11T07:14:49.915Z,87.80
2022-12-11T07:16:51.406Z,87.97
2022-12-11T07:18:52.779Z,87.83
2022-12-11T07:20:54.416Z,88.29
2022-12-11T07:22:55.921Z,88.28
2022-12-11T07:24:57.357Z,88.29
2022-12-11T07:26:59.712Z,88.24
2022-12-11T07:29:01.158Z,87.95
2022-12-11T07:31:07.495Z,87.51
2022-12-11T07:33:08.932Z,87.46
2022-12-11T07:35:10.580Z,87.80
2022-12-11T07:37:12.188Z,86.82
2022-12-11T07:39:13.764Z,87.50
2022-12-11T07:41:16.156Z,87.76
2022-12-11T07:43:17.547Z,87.22
2022-12-11T07:45:18.974Z,86.58
2022-12-11T07:47:20.337Z,87.42
2022-12-11T07:49:21.791Z,86.47
2022-12-11T07:51:28.712Z,86.68
2022-12-11T07:53:30.074Z,86.95
2022-12-11T07:55:32.065Z,87.21
2022-12-11T07:57:33.458Z,87.22
2022-12-11T07:59:34.888Z,86.40
2022-12-11T08:01:37.937Z,86.39
2022-12-11T08:03:39.895Z,87.23
2022-12-11T08:05:48.731Z,87.01
2022-12-11T08:07:50.176Z,86.37
2022-12-11T08:09:51.599Z,86.45
2022-12-11T08:11:53.048Z,86.88
2022-12-11T08:13:55.065Z,86.78
2022-12-11T08:15:56.629Z,86.02
2022-12-11T08:17:57.976Z,86.51
2022-12-11T08:19:59.352Z,86.29
2022-12-11T08:22:00.711Z,85.83
2022-12-11T08:24:02.111Z,85.65
2022-12-11T08:26:06.047Z,86.16
2022-12-11T08:28:07.398Z,86.13
2022-12-11T08:30:09.772Z,85.82
2022-12-11T08:32:13.559Z,85.70
2022-12-11T08:34:14.952Z,85.39
2022-12-11T08:36:20.662Z,85.66
2022-12-11T08:38:25.346Z,85.46
2022-12-11T08:40:27.089Z,84.52
2022-12-11T08:42:28.488Z,84.05
2022-12-11T08:44:30.035Z,84.66
2022-12-11T08:46:32.467Z,84.66
2022-12-11T08:48:35.454Z,84.93
2022-12-11T08:50:37.586Z,84.79
2022-12-11T08:52:38.992Z,84.57
2022-12-11T08:54:40.462Z,84.57
2022-12-11T08:56:41.852Z,84.11
2022-12-11T08:58:44.340Z,83.82
2022-12-11T09:00:45.680Z,83.63
2022-12-11T09:02:48.096Z,84.48
2022-12-11T09:04:50.458Z,83.68
2022-12-11T09:06:52.008Z,83.29
2022-12-11T09:08:53.902Z,83.20
2022-12-11T09:10:55.259Z,82.66
2022-12-11T09:12:56.621Z,82.29
2022-12-11T09:14:57.963Z,82.44
2022-12-11T09:16:59.366Z,82.15
2022-12-11T09:19:00.699Z,82.65
2022-12-11T09:21:05.404Z,83.00
2022-12-11T09:23:06.807Z,83.68
2022-12-11T09:25:09.768Z,83.11
2022-12-11T09:27:11.275Z,82.64
2022-12-11T09:29:13.170Z,82.14
2022-12-11T09:31:17.870Z,82.37
2022-12-11T09:33:19.475Z,82.27
2022-12-11T09:35:20.840Z,83.36
2022-12-11T09:37:22.286Z,82.00
2022-12-11T09:39:24.582Z,82.55
2022-12-11T09:41:40.310Z,82.39
2022-12-11T09:43:49.583Z,81.53
2022-12-11T09:45:51.290Z,82.01
2022-12-11T09:47:56.167Z,82.04
2022-12-11T09:50:09.615Z,81.63
2022-12-11T09:52:17.187Z,81.18
2022-12-11T09:54:18.618Z,81.69
2022-12-11T09:56:20.035Z,81.34
2022-12-11T09:58:31.711Z,82.30
2022-12-11T10:00:41.467Z,82.26
2022-12-11T10:03:10.399Z,82.28
2022-12-11T10:05:35.509Z,81.77
2022-12-11T10:07:46.201Z,79.56
2022-12-11T10:10:23.255Z,80.09
2022-12-11T10:12:48.247Z,80.69
2022-12-11T10:15:20.494Z,81.68
2022-12-11T10:17:31.076Z,82.31
2022-12-11T10:19:33.038Z,81.85
2022-12-11T10:21:41.544Z,81.04
2022-12-11T10:23:53.659Z,80.20
2022-12-11T10:26:15.976Z,81.05
2022-12-11T10:28:20.436Z,80.86
2022-12-11T10:30:37.464Z,81.12
2022-12-11T10:32:53.343Z,81.83
2022-12-11T10:35:03.953Z,82.23
2022-12-11T10:37:05.431Z,81.61
2022-12-11T10:39:16.013Z,81.44
2022-12-11T10:41:20.951Z,82.00
2022-12-11T10:43:33.615Z,81.52
2022-12-11T10:45:35.082Z,81.90
2022-12-11T10:47:36.483Z,81.83
2022-12-11T10:49:42.766Z,80.76
2022-12-11T10:51:44.481Z,81.12
2022-12-11T10:53:51.527Z,81.04
2022-12-11T10:55:53.613Z,81.39
2022-12-11T10:58:02.752Z,81.57
2022-12-11T11:00:07.362Z,81.47
2022-12-11T11:02:40.521Z,81.20
2022-12-11T11:04:44.736Z,80.86
2022-12-11T11:06:46.170Z,81.32
2022-12-11T11:08:53.852Z,81.37
2022-12-11T11:10:58.195Z,81.20
2022-12-11T11:13:03.021Z,81.71
2022-12-11T11:15:15.146Z,81.15
2022-12-11T11:17:17.554Z,81.00
2022-12-11T11:19:29.435Z,81.23
2022-12-11T11:21:32.428Z,81.52
2022-12-11T11:23:34.483Z,81.32
2022-12-11T11:25:35.936Z,81.42
2022-12-11T11:27:45.751Z,80.86
2022-12-11T11:29:51.660Z,81.25
2022-12-11T11:31:54.794Z,81.49
2022-12-11T11:33:58.760Z,81.10
2022-12-11T11:36:05.965Z,81.52
2022-12-11T11:38:18.459Z,81.74
2022-12-11T11:40:30.357Z,81.07
2022-12-11T11:42:47.223Z,81.48
2022-12-11T11:45:05.240Z,80.90
2022-12-11T11:47:24.220Z,81.11
2022-12-11T11:49:50.296Z,80.71
2022-12-11T11:52:01.058Z,80.75
2022-12-11T11:54:20.711Z,80.61
2022-12-11T11:56:35.003Z,80.20
2022-12-11T11:58:47.972Z,80.54
2022-12-11T12:00:50.189Z,80.60
2022-12-11T12:02:56.204Z,80.41
2022-12-11T12:04:57.649Z,80.47
2022-12-11T12:07:04.676Z,80.31
2022-12-11T12:09:26.589Z,80.38
2022-12-11T12:11:49.588Z,80.06
2022-12-11T12:14:02.456Z,81.21
2022-12-11T12:16:22.919Z,80.63
2022-12-11T12:19:08.391Z,80.35
2022-12-11T12:21:36.950Z,80.51
2022-12-11T12:23:50.188Z,80.58
2022-12-11T12:26:08.842Z,80.88
2022-12-11T12:28:28.978Z,80.43
2022-12-11T12:30:46.727Z,80.21
2022-12-11T12:32:56.905Z,80.27
2022-12-11T12:35:12.755Z,80.82
2022-12-11T12:37:48.514Z,80.95
2022-12-11T12:40:08.517Z,80.21
2022-12-11T12:42:25.149Z,80.96
2022-12-11T12:44:35.094Z,80.57
2022-12-11T12:47:00.991Z,80.22
2022-12-11T12:49:04.872Z,80.55
2022-12-11T12:51:06.819Z,80.30
2022-12-11T12:53:13.466Z,79.42
2022-12-11T12:55:31.721Z,80.89
2022-12-11T12:57:34.983Z,80.65
2022-12-11T12:59:36.400Z,80.60
2022-12-11T13:01:38.656Z,80.25
2022-12-11T13:04:47.437Z,80.08
2022-12-11T13:06:47.565Z,80.46
2022-12-11T13:08:51.700Z,80.07
2022-12-11T13:11:03.604Z,80.42
2022-12-11T13:13:06.603Z,80.25
2022-12-11T13:15:32.018Z,80.25
2022-12-11T13:17:38.169Z,80.48
2022-12-11T13:19:42.730Z,79.40
2022-12-11T13:21:59.876Z,79.55
2022-12-11T13:24:28.401Z,79.88
2022-12-11T13:26:31.899Z,80.25
2022-12-11T13:28:54.029Z,80.49
2022-12-11T13:31:01.459Z,80.46
2022-12-11T13:33:14.838Z,80.09
2022-12-11T13:35:18.248Z,80.45
2022-12-11T13:37:41.119Z,80.30
2022-12-11T13:39:47.095Z,80.39
2022-12-11T13:41:55.185Z,80.71
2022-12-11T13:43:57.869Z,80.58
2022-12-11T13:46:02.976Z,80.56
2022-12-11T13:48:16.987Z,80.34
2022-12-11T13:50:24.928Z,80.30
2022-12-11T13:52:27.601Z,80.18
2022-12-11T13:54:31.904Z,80.16
2022-12-11T13:56:34.284Z,80.00
2022-12-11T13:58:38.807Z,80.96
2022-12-11T14:00:40.477Z,81.01
2022-12-11T14:02:42.618Z,80.63
2022-12-11T14:04:44.877Z,80.54
2022-12-11T14:06:46.370Z,80.02
2022-12-11T14:08:51.568Z,80.44
2022-12-11T14:10:54.315Z,80.40
2022-12-11T14:13:21.948Z,80.72
2022-12-11T14:15:23.706Z,80.89
2022-12-11T14:17:27.812Z,80.51
2022-12-11T14:19:29.394Z,80.68
2022-12-11T14:21:30.805Z,80.92
2022-12-11T14:23:36.570Z,80.42
2022-12-11T14:25:37.944Z,80.24
2022-12-11T14:27:50.890Z,80.43
2022-12-11T14:29:52.699Z,80.33
2022-12-11T14:31:54.895Z,80.36
2022-12-11T14:34:03.028Z,80.52
2022-12-11T14:36:06.412Z,80.38
2022-12-11T14:38:16.635Z,80.23
2022-12-11T14:40:22.911Z,80.76
2022-12-11T14:42:32.436Z,80.87
2022-12-11T14:44:56.486Z,80.69
2022-12-11T14:47:03.520Z,80.82
2022-12-11T14:49:26.041Z,80.72
2022-12-11T14:51:33.526Z,80.59
2022-12-11T14:53:51.044Z,80.88
2022-12-11T14:55:53.096Z,81.03
2022-12-11T14:58:02.557Z,80.77
2022-12-11T15:00:05.194Z,81.06
2022-12-11T15:02:29.932Z,81.09
2022-12-11T15:04:33.237Z,81.02
2022-12-11T15:06:43.987Z,80.92
2022-12-11T15:08:45.501Z,81.35
2022-12-11T15:11:10.337Z,81.10
2022-12-11T15:13:13.863Z,81.31
2022-12-11T15:15:17.195Z,81.37
2022-12-11T15:17:23.547Z,81.09
2022-12-11T15:19:30.587Z,80.97
2022-12-11T15:21:36.207Z,80.88
2022-12-11T15:23:59.886Z,81.06
2022-12-11T15:26:02.613Z,81.36
2022-12-11T15:28:04.204Z,81.77
2022-12-11T15:30:20.005Z,81.01
2022-12-11T15:32:21.833Z,81.25
2022-12-11T15:34:23.479Z,81.00
2022-12-11T15:36:31.254Z,80.82
2022-12-11T15:38:42.092Z,81.32
2022-12-11T15:40:43.445Z,81.49
2022-12-11T15:42:45.192Z,81.32
2022-12-11T15:44:46.638Z,81.53
2022-12-11T15:46:48.030Z,81.03
2022-12-11T15:48:50.192Z,81.59
2022-12-11T15:51:17.054Z,81.18
2022-12-11T15:53:18.423Z,81.82
2022-12-11T15:55:21.184Z,81.27
2022-12-11T15:57:24.521Z,81.74
2022-12-11T15:59:26.112Z,81.57
2022-12-11T16:01:27.589Z,81.56
2022-12-11T16:03:29.081Z,81.74
2022-12-11T16:05:30.470Z,81.65
2022-12-11T16:07:32.596Z,81.44
2022-12-11T16:09:34.549Z,81.28
2022-12-11T16:11:35.912Z,81.42
2022-12-11T16:13:37.299Z,81.55
2022-12-11T16:15:41.372Z,81.63
2022-12-11T16:17:42.950Z,81.18
2022-12-11T16:19:44.600Z,81.52
2022-12-11T16:21:45.966Z,81.98
2022-12-11T16:23:47.363Z,81.26
2022-12-11T16:25:52.189Z,81.27
2022-12-11T16:28:02.455Z,81.31
2022-12-11T16:30:05.036Z,81.79
2022-12-11T16:32:08.239Z,82.08
2022-12-11T16:34:09.687Z,81.92
2022-12-11T16:36:15.815Z,81.55
2022-12-11T16:38:17.251Z,81.96
2022-12-11T16:40:19.177Z,81.70
2022-12-11T16:42:20.575Z,81.94
2022-12-11T16:44:24.351Z,81.68
2022-12-11T16:46:25.876Z,82.23
2022-12-11T16:48:27.396Z,82.25
2022-12-11T16:50:28.762Z,82.41
2022-12-11T16:52:31.969Z,82.42
2022-12-11T16:54:33.325Z,83.29
2022-12-11T16:56:34.862Z,82.33
2022-12-11T16:58:36.285Z,81.97
2022-12-11T17:00:38.226Z,81.56
2022-12-11T17:02:39.868Z,81.92
2022-12-11T17:04:41.939Z,81.73
2022-12-11T17:06:46.729Z,82.54
2022-12-11T17:08:48.224Z,82.19
2022-12-11T17:10:51.151Z,82.12
2022-12-11T17:12:52.535Z,82.18
2022-12-11T17:14:54.827Z,82.03
2022-12-11T17:16:56.654Z,82.09
2022-12-11T17:18:58.148Z,81.85
2022-12-11T17:21:00.281Z,82.33
2022-12-11T17:23:01.678Z,82.80
2022-12-11T17:25:03.543Z,82.61
2022-12-11T17:27:04.892Z,82.22
2022-12-11T17:29:06.605Z,82.83
2022-12-11T17:31:12.281Z,82.57
2022-12-11T17:33:13.703Z,81.73
2022-12-11T17:35:15.076Z,82.52
2022-12-11T17:37:17.295Z,81.96
2022-12-11T17:39:18.761Z,81.70
2022-12-11T17:41:21.752Z,81.82
2022-12-11T17:43:23.197Z,82.54
2022-12-11T17:45:24.706Z,82.49
2022-12-11T17:47:26.159Z,82.25
2022-12-11T17:49:27.624Z,82.40
2022-12-11T17:51:29.014Z,82.13
2022-12-11T17:53:30.392Z,82.36
2022-12-11T17:55:32.503Z,82.21
2022-12-11T17:57:34.363Z,82.25
2022-12-11T17:59:35.729Z,82.17
2022-12-11T18:01:37.525Z,82.20
2022-12-11T18:03:40.196Z,82.23
2022-12-11T18:05:45.222Z,82.15
2022-12-11T18:07:46.649Z,82.35
2022-12-11T18:09:48.035Z,82.41
2022-12-11T18:11:49.430Z,81.79
2022-12-11T18:13:52.363Z,82.41
2022-12-11T18:16:02.929Z,82.66
2022-12-11T18:18:04.962Z,82.51
2022-12-11T18:20:06.852Z,82.68
2022-12-11T18:22:08.190Z,82.13
2022-12-11T18:24:10.339Z,82.86
2022-12-11T18:26:14.338Z,82.73
2022-12-11T18:28:15.732Z,82.90
2022-12-11T18:30:17.504Z,82.73
2022-12-11T18:32:18.912Z,82.46
2022-12-11T18:34:20.273Z,82.35
2022-12-11T18:36:21.912Z,82.33
2022-12-11T18:38:23.900Z,82.71
2022-12-11T18:40:25.282Z,82.47
2022-12-11T18:42:34.888Z,82.35
2022-12-11T18:44:36.296Z,82.04
2022-12-11T18:46:39.414Z,82.97
2022-12-11T18:48:42.399Z,83.03
2022-12-11T18:50:48.516Z,82.86
2022-12-11T18:52:53.904Z,82.96
2022-12-11T18:54:55.312Z,82.84
2022-12-11T18:56:56.707Z,82.67
2022-12-11T18:58:58.100Z,82.78
2022-12-11T19:00:59.594Z,82.51
2022-12-11T19:03:02.001Z,81.99
2022-12-11T19:05:03.628Z,82.56
2022-12-11T19:07:04.958Z,82.71
2022-12-11T19:09:08.975Z,82.63
2022-12-11T19:11:14.712Z,82.96
2022-12-11T19:13:16.145Z,82.87
2022-12-11T19:15:23.985Z,82.76
2022-12-11T19:17:25.708Z,83.12
2022-12-11T19:19:27.095Z,82.32
2022-12-11T19:21:28.581Z,82.96
2022-12-11T19:23:29.982Z,83.53
2022-12-11T19:25:32.336Z,83.04
2022-12-11T19:27:33.760Z,82.68
2022-12-11T19:29:35.158Z,82.78
2022-12-11T19:31:36.624Z,82.96
2022-12-11T19:33:39.738Z,82.80
2022-12-11T19:35:41.589Z,83.03
2022-12-11T19:37:43.139Z,83.02
2022-12-11T19:39:44.532Z,82.37
2022-12-11T19:41:46.374Z,83.54
2022-12-11T19:43:47.849Z,82.83
2022-12-11T19:45:49.522Z,82.86
2022-12-11T19:47:50.969Z,82.92
2022-12-11T19:49:52.326Z,82.92
2022-12-11T19:51:53.694Z,83.64
2022-12-11T19:53:55.808Z,83.11
2022-12-11T19:55:57.167Z,82.82
2022-12-11T19:57:58.738Z,82.93
2022-12-11T20:00:01.068Z,83.01
2022-12-11T20:02:02.451Z,82.86
2022-12-11T20:04:08.107Z,82.90
2022-12-11T20:06:10.002Z,83.16
2022-12-11T20:08:43.091Z,82.91
2022-12-11T20:10:36.603Z,83.28
2022-12-11T20:12:38.227Z,82.88
2022-12-11T20:14:39.652Z,82.94
2022-12-11T20:19:02.801Z,82.95
2022-12-11T20:21:07.720Z,82.59
2022-12-11T20:23:09.508Z,83.06
2022-12-11T20:25:11.332Z,82.96
2022-12-11T20:27:12.867Z,82.82
2022-12-11T20:29:14.906Z,82.70
2022-12-11T20:31:20.531Z,82.92
2022-12-11T20:33:22.359Z,83.32
2022-12-11T20:35:26.267Z,83.23
2022-12-11T20:37:28.962Z,83.01
2022-12-11T20:39:31.880Z,82.97
2022-12-11T20:41:33.421Z,83.32
2022-12-11T20:43:34.803Z,82.82
2022-12-11T20:45:36.199Z,83.10
2022-12-11T20:47:37.608Z,82.73
2022-12-11T20:49:39.256Z,82.82
2022-12-11T20:51:40.968Z,83.04
2022-12-11T20:53:42.946Z,83.34
2022-12-11T20:55:44.746Z,83.23
2022-12-11T20:57:46.083Z,83.46
2022-12-11T20:59:49.037Z,82.77
2022-12-11T21:01:50.579Z,82.92
2022-12-11T21:03:53.381Z,83.15
2022-12-11T21:05:54.814Z,83.14
2022-12-11T21:07:56.579Z,82.85
2022-12-11T21:09:57.946Z,82.89
2022-12-11T21:12:01.492Z,82.62
2022-12-11T21:14:03.392Z,82.95
2022-12-11T21:16:07.103Z,82.89
2022-12-11T21:18:08.926Z,83.23
2022-12-11T21:20:10.620Z,83.07
2022-12-11T21:22:12.179Z,83.36
2022-12-11T21:24:26.477Z,83.70
2022-12-11T21:26:27.900Z,84.52
2022-12-11T21:28:35.029Z,83.42
2022-12-11T21:30:40.052Z,83.38
2022-12-11T21:32:41.458Z,83.01
2022-12-11T21:34:42.839Z,83.51
2022-12-11T21:36:45.025Z,83.44
2022-12-11T21:38:47.515Z,83.47
2022-12-11T21:40:49.177Z,83.32
2022-12-11T21:42:50.555Z,82.61
2022-12-11T21:47:13.343Z,83.13
2022-12-11T21:49:14.721Z,83.14
2022-12-11T21:51:34.078Z,83.39
2022-12-11T21:53:38.271Z,83.38
2022-12-11T21:55:41.358Z,83.35
2022-12-11T21:57:42.725Z,83.60
2022-12-11T21:59:44.188Z,83.89
2022-12-11T22:01:46.167Z,83.98
2022-12-11T22:03:48.882Z,84.07
2022-12-11T22:05:50.320Z,84.13
2022-12-11T22:07:51.760Z,84.00
2022-12-11T22:09:53.167Z,83.75
2022-12-11T22:11:58.334Z,83.67
2022-12-11T22:14:00.522Z,84.00
2022-12-11T22:16:01.894Z,83.46
2022-12-11T22:18:03.900Z,83.64
2022-12-11T22:20:06.022Z,83.90
2022-12-11T22:22:07.403Z,84.41
2022-12-11T22:24:09.118Z,83.98
2022-12-11T22:26:23.032Z,84.04
2022-12-11T22:28:24.835Z,83.78
2022-12-11T22:30:26.308Z,83.51
2022-12-11T22:32:27.790Z,83.59
2022-12-11T22:34:29.560Z,83.28
2022-12-11T22:36:30.953Z,83.74
2022-12-11T22:38:33.563Z,83.88
2022-12-11T22:40:39.870Z,83.92
2022-12-11T22:42:41.283Z,83.92
2022-12-11T22:44:42.677Z,83.69
2022-12-11T22:46:49.737Z,83.71
2022-12-11T22:48:52.069Z,83.83
2022-12-11T22:50:53.458Z,83.77
2022-12-11T22:52:54.851Z,83.73
2022-12-11T22:54:56.423Z,83.71
2022-12-11T22:56:57.929Z,83.67
2022-12-11T22:58:59.463Z,83.86
2022-12-11T23:01:01.617Z,84.01
2022-12-11T23:03:03.789Z,84.01
2022-12-11T23:05:06.382Z,83.78
2022-12-11T23:07:08.109Z,83.79
2022-12-11T23:09:10.826Z,84.43
2022-12-11T23:11:13.200Z,84.19
2022-12-11T23:13:14.724Z,83.61
2022-12-11T23:15:16.500Z,83.99
2022-12-11T23:17:17.872Z,84.19
2022-12-11T23:19:25.291Z,83.49
2022-12-11T23:21:28.063Z,84.31
2022-12-11T23:23:29.547Z,84.37
2022-12-11T23:25:30.920Z,84.53
2022-12-11T23:27:32.360Z,84.01
2022-12-11T23:29:33.788Z,84.18
2022-12-11T23:31:35.640Z,84.23
2022-12-11T23:33:37.370Z,83.92
2022-12-11T23:35:38.771Z,84.47
2022-12-11T23:37:40.148Z,84.70
2022-12-11T23:39:41.548Z,83.80
2022-12-11T23:41:43.207Z,83.90
2022-12-11T23:43:44.614Z,84.01
2022-12-11T23:45:46.647Z,83.99
2022-12-11T23:47:48.088Z,84.02
2022-12-11T23:49:49.493Z,84.74
2022-12-11T23:51:50.908Z,83.88
2022-12-11T23:53:53.094Z,84.04
2022-12-11T23:55:55.277Z,84.06
2022-12-11T23:57:56.640Z,84.21
2022-12-11T23:59:57.980Z,83.81
